sensor_id;sensor_type;location;lat;lon;timestamp;pressure;altitude;pressure_sealevel;temperature
74915;BMP280;63475;45.140;-75.616;2023-05-07T00:00:34;101051.06;;;21.45
74915;BMP280;63475;45.140;-75.616;2023-05-07T00:01:35;101052.25;;;21.44
74915;BMP280;63475;45.140;-75.616;2023-05-07T00:02:36;101051.72;;;21.40
74915;BMP280;63475;45.140;-75.616;2023-05-07T00:03:37;101050.06;;;21.27
74915;BMP280;63475;45.140;-75.616;2023-05-07T00:04:39;101054.22;;;21.28
74915;BMP280;63475;45.140;-75.616;2023-05-07T00:05:40;101045.13;;;21.26
74915;BMP280;63475;45.140;-75.616;2023-05-07T00:06:42;101050.97;;;21.24
74915;BMP280;63475;45.140;-75.616;2023-05-07T00:07:42;101053.06;;;21.15
74915;BMP280;63475;45.140;-75.616;2023-05-07T00:08:43;101049.38;;;21.12
74915;BMP280;63475;45.140;-75.616;2023-05-07T00:09:44;101050.56;;;21.11
74915;BMP280;63475;45.140;-75.616;2023-05-07T00:10:45;101051.03;;;21.10
74915;BMP280;63475;45.140;-75.616;2023-05-07T00:11:46;101052.25;;;21.09
74915;BMP280;63475;45.140;-75.616;2023-05-07T00:12:47;101037.34;;;20.99
74915;BMP280;63475;45.140;-75.616;2023-05-07T00:13:50;101051.22;;;21.06
74915;BMP280;63475;45.140;-75.616;2023-05-07T00:14:51;101047.50;;;21.04
74915;BMP280;63475;45.140;-75.616;2023-05-07T00:15:52;101039.03;;;20.96
74915;BMP280;63475;45.140;-75.616;2023-05-07T00:16:53;101043.50;;;20.99
74915;BMP280;63475;45.140;-75.616;2023-05-07T00:17:55;101042.47;;;20.97
74915;BMP280;63475;45.140;-75.616;2023-05-07T00:18:55;101045.38;;;20.93
74915;BMP280;63475;45.140;-75.616;2023-05-07T00:19:56;101039.13;;;20.87
74915;BMP280;63475;45.140;-75.616;2023-05-07T00:20:57;101051.13;;;20.86
74915;BMP280;63475;45.140;-75.616;2023-05-07T00:21:58;101048.59;;;20.83
74915;BMP280;63475;45.140;-75.616;2023-05-07T00:22:59;101047.59;;;20.80
74915;BMP280;63475;45.140;-75.616;2023-05-07T00:24:01;101047.78;;;20.76
74915;BMP280;63475;45.140;-75.616;2023-05-07T00:25:01;101055.59;;;20.74
74915;BMP280;63475;45.140;-75.616;2023-05-07T00:26:03;101048.16;;;20.69
74915;BMP280;63475;45.140;-75.616;2023-05-07T00:27:04;101024.81;;;20.52
74915;BMP280;63475;45.140;-75.616;2023-05-07T00:28:05;101045.25;;;20.58
74915;BMP280;63475;45.140;-75.616;2023-05-07T00:29:06;101043.22;;;20.53
74915;BMP280;63475;45.140;-75.616;2023-05-07T00:30:08;101050.09;;;20.54
74915;BMP280;63475;45.140;-75.616;2023-05-07T00:31:09;101047.59;;;20.51
74915;BMP280;63475;45.140;-75.616;2023-05-07T00:32:10;101036.16;;;20.41
74915;BMP280;63475;45.140;-75.616;2023-05-07T00:33:11;101044.97;;;20.42
74915;BMP280;63475;45.140;-75.616;2023-05-07T00:34:12;101056.84;;;20.35
74915;BMP280;63475;45.140;-75.616;2023-05-07T00:35:13;101051.16;;;20.33
74915;BMP280;63475;45.140;-75.616;2023-05-07T00:36:14;101035.16;;;20.15
74915;BMP280;63475;45.140;-75.616;2023-05-07T00:37:15;101058.81;;;20.25
74915;BMP280;63475;45.140;-75.616;2023-05-07T00:38:16;101053.19;;;20.23
74915;BMP280;63475;45.140;-75.616;2023-05-07T00:39:16;101046.66;;;20.15
74915;BMP280;63475;45.140;-75.616;2023-05-07T00:40:17;101058.63;;;20.14
74915;BMP280;63475;45.140;-75.616;2023-05-07T00:41:24;101055.38;;;20.10
74915;BMP280;63475;45.140;-75.616;2023-05-07T00:42:25;101057.19;;;20.04
74915;BMP280;63475;45.140;-75.616;2023-05-07T00:43:26;101053.03;;;20.03
74915;BMP280;63475;45.140;-75.616;2023-05-07T00:44:28;101059.59;;;20.02
74915;BMP280;63475;45.140;-75.616;2023-05-07T00:45:29;101064.41;;;19.98
74915;BMP280;63475;45.140;-75.616;2023-05-07T00:46:30;101044.47;;;19.81
74915;BMP280;63475;45.140;-75.616;2023-05-07T00:47:31;101061.19;;;19.85
74915;BMP280;63475;45.140;-75.616;2023-05-07T00:48:33;101051.53;;;19.78
74915;BMP280;63475;45.140;-75.616;2023-05-07T00:49:42;101062.09;;;19.82
74915;BMP280;63475;45.140;-75.616;2023-05-07T00:50:43;101063.03;;;19.79
74915;BMP280;63475;45.140;-75.616;2023-05-07T00:51:45;101069.94;;;19.71
74915;BMP280;63475;45.140;-75.616;2023-05-07T00:52:46;101044.63;;;19.54
74915;BMP280;63475;45.140;-75.616;2023-05-07T00:53:47;101062.06;;;19.58
74915;BMP280;63475;45.140;-75.616;2023-05-07T00:54:48;101068.81;;;19.54
74915;BMP280;63475;45.140;-75.616;2023-05-07T00:55:50;101070.47;;;19.51
74915;BMP280;63475;45.140;-75.616;2023-05-07T00:56:51;101066.72;;;19.49
74915;BMP280;63475;45.140;-75.616;2023-05-07T00:57:52;101061.69;;;19.41
74915;BMP280;63475;45.140;-75.616;2023-05-07T00:58:54;101067.69;;;19.36
74915;BMP280;63475;45.140;-75.616;2023-05-07T00:59:55;101064.72;;;19.34
74915;BMP280;63475;45.140;-75.616;2023-05-07T01:00:56;101066.81;;;19.30
74915;BMP280;63475;45.140;-75.616;2023-05-07T01:01:57;101069.34;;;19.25
74915;BMP280;63475;45.140;-75.616;2023-05-07T01:02:58;101064.56;;;19.20
74915;BMP280;63475;45.140;-75.616;2023-05-07T01:03:59;101066.50;;;19.19
74915;BMP280;63475;45.140;-75.616;2023-05-07T01:05:00;101074.28;;;19.17
74915;BMP280;63475;45.140;-75.616;2023-05-07T01:06:02;101063.84;;;19.10
74915;BMP280;63475;45.140;-75.616;2023-05-07T01:07:04;101073.56;;;19.08
74915;BMP280;63475;45.140;-75.616;2023-05-07T01:08:06;101063.00;;;19.04
74915;BMP280;63475;45.140;-75.616;2023-05-07T01:09:07;101068.97;;;18.99
74915;BMP280;63475;45.140;-75.616;2023-05-07T01:10:10;101070.63;;;18.96
74915;BMP280;63475;45.140;-75.616;2023-05-07T01:11:11;101060.75;;;18.93
74915;BMP280;63475;45.140;-75.616;2023-05-07T01:12:13;101058.53;;;18.83
74915;BMP280;63475;45.140;-75.616;2023-05-07T01:13:14;101068.09;;;18.84
74915;BMP280;63475;45.140;-75.616;2023-05-07T01:14:16;101067.50;;;18.80
74915;BMP280;63475;45.140;-75.616;2023-05-07T01:15:17;101060.94;;;18.72
74915;BMP280;63475;45.140;-75.616;2023-05-07T01:16:18;101039.75;;;18.55
74915;BMP280;63475;45.140;-75.616;2023-05-07T01:17:20;101071.06;;;18.68
74915;BMP280;63475;45.140;-75.616;2023-05-07T01:18:21;101069.28;;;18.65
74915;BMP280;63475;45.140;-75.616;2023-05-07T01:19:22;101069.44;;;18.61
74915;BMP280;63475;45.140;-75.616;2023-05-07T01:20:23;101047.06;;;18.46
74915;BMP280;63475;45.140;-75.616;2023-05-07T01:21:26;101062.44;;;18.54
74915;BMP280;63475;45.140;-75.616;2023-05-07T01:22:32;101064.78;;;18.52
74915;BMP280;63475;45.140;-75.616;2023-05-07T01:23:33;101044.81;;;18.35
74915;BMP280;63475;45.140;-75.616;2023-05-07T01:24:36;101055.72;;;18.41
74915;BMP280;63475;45.140;-75.616;2023-05-07T01:25:37;101055.72;;;18.41
74915;BMP280;63475;45.140;-75.616;2023-05-07T01:26:39;101056.59;;;18.38
74915;BMP280;63475;45.140;-75.616;2023-05-07T01:27:40;101056.44;;;18.32
74915;BMP280;63475;45.140;-75.616;2023-05-07T01:28:41;101059.13;;;18.32
74915;BMP280;63475;45.140;-75.616;2023-05-07T01:29:42;101042.41;;;18.19
74915;BMP280;63475;45.140;-75.616;2023-05-07T01:30:47;101064.34;;;18.27
74915;BMP280;63475;45.140;-75.616;2023-05-07T01:31:50;101060.28;;;18.22
74915;BMP280;63475;45.140;-75.616;2023-05-07T01:33:04;101058.19;;;18.17
74915;BMP280;63475;45.140;-75.616;2023-05-07T01:34:07;101058.91;;;18.08
74915;BMP280;63475;45.140;-75.616;2023-05-07T01:35:11;101063.09;;;18.09
74915;BMP280;63475;45.140;-75.616;2023-05-07T01:36:13;101064.44;;;18.05
74915;BMP280;63475;45.140;-75.616;2023-05-07T01:37:15;101056.97;;;18.00
74915;BMP280;63475;45.140;-75.616;2023-05-07T01:38:16;101064.72;;;17.98
74915;BMP280;63475;45.140;-75.616;2023-05-07T01:39:18;101058.31;;;17.95
74915;BMP280;63475;45.140;-75.616;2023-05-07T01:40:19;101054.28;;;17.91
74915;BMP280;63475;45.140;-75.616;2023-05-07T01:41:21;101056.66;;;17.89
74915;BMP280;63475;45.140;-75.616;2023-05-07T01:42:22;101051.09;;;17.83
74915;BMP280;63475;45.140;-75.616;2023-05-07T01:43:23;101053.63;;;17.78
74915;BMP280;63475;45.140;-75.616;2023-05-07T01:44:24;101034.22;;;17.64
74915;BMP280;63475;45.140;-75.616;2023-05-07T01:45:25;101061.94;;;17.70
74915;BMP280;63475;45.140;-75.616;2023-05-07T01:46:26;101051.47;;;17.63
74915;BMP280;63475;45.140;-75.616;2023-05-07T01:47:29;101059.38;;;17.67
74915;BMP280;63475;45.140;-75.616;2023-05-07T01:48:30;101042.53;;;17.57
74915;BMP280;63475;45.140;-75.616;2023-05-07T01:49:32;101055.06;;;17.60
74915;BMP280;63475;45.140;-75.616;2023-05-07T01:50:33;101049.38;;;17.58
74915;BMP280;63475;45.140;-75.616;2023-05-07T01:51:35;101050.25;;;17.55
74915;BMP280;63475;45.140;-75.616;2023-05-07T01:52:38;101059.16;;;17.52
74915;BMP280;63475;45.140;-75.616;2023-05-07T01:53:39;101052.75;;;17.50
74915;BMP280;63475;45.140;-75.616;2023-05-07T01:54:41;101051.38;;;17.45
74915;BMP280;63475;45.140;-75.616;2023-05-07T01:55:42;101050.94;;;17.47
74915;BMP280;63475;45.140;-75.616;2023-05-07T01:56:43;101054.81;;;17.46
74915;BMP280;63475;45.140;-75.616;2023-05-07T01:57:44;101047.34;;;17.41
74915;BMP280;63475;45.140;-75.616;2023-05-07T01:58:45;101033.63;;;17.30
74915;BMP280;63475;45.140;-75.616;2023-05-07T01:59:49;101047.47;;;17.37
74915;BMP280;63475;45.140;-75.616;2023-05-07T02:00:50;101044.19;;;17.33
74915;BMP280;63475;45.140;-75.616;2023-05-07T02:01:51;101045.09;;;17.30
74915;BMP280;63475;45.140;-75.616;2023-05-07T02:02:52;101045.94;;;17.27
74915;BMP280;63475;45.140;-75.616;2023-05-07T02:03:53;101036.88;;;17.24
74915;BMP280;63475;45.140;-75.616;2023-05-07T02:04:54;101041.47;;;17.24
74915;BMP280;63475;45.140;-75.616;2023-05-07T02:05:55;101037.00;;;17.21
74915;BMP280;63475;45.140;-75.616;2023-05-07T02:06:56;101035.16;;;17.18
74915;BMP280;63475;45.140;-75.616;2023-05-07T02:07:57;101032.94;;;17.16
74915;BMP280;63475;45.140;-75.616;2023-05-07T02:08:58;101038.09;;;17.11
74915;BMP280;63475;45.140;-75.616;2023-05-07T02:09:59;101026.88;;;17.03
74915;BMP280;63475;45.140;-75.616;2023-05-07T02:11:00;101036.75;;;17.06
74915;BMP280;63475;45.140;-75.616;2023-05-07T02:12:01;101031.53;;;17.03
74915;BMP280;63475;45.140;-75.616;2023-05-07T02:13:02;101024.91;;;16.95
74915;BMP280;63475;45.140;-75.616;2023-05-07T02:14:03;101032.50;;;16.96
74915;BMP280;63475;45.140;-75.616;2023-05-07T02:15:04;101037.88;;;16.96
74915;BMP280;63475;45.140;-75.616;2023-05-07T02:16:06;101032.31;;;16.91
74915;BMP280;63475;45.140;-75.616;2023-05-07T02:17:07;101025.28;;;16.84
74915;BMP280;63475;45.140;-75.616;2023-05-07T02:18:08;101029.13;;;16.83
74915;BMP280;63475;45.140;-75.616;2023-05-07T02:19:09;101027.00;;;16.78
74915;BMP280;63475;45.140;-75.616;2023-05-07T02:20:10;101028.63;;;16.75
74915;BMP280;63475;45.140;-75.616;2023-05-07T02:21:13;101025.31;;;16.71
74915;BMP280;63475;45.140;-75.616;2023-05-07T02:22:14;101010.09;;;16.59
74915;BMP280;63475;45.140;-75.616;2023-05-07T02:23:16;101022.16;;;16.64
74915;BMP280;63475;45.140;-75.616;2023-05-07T02:24:16;101009.56;;;16.52
74915;BMP280;63475;45.140;-75.616;2023-05-07T02:25:17;101017.03;;;16.57
74915;BMP280;63475;45.140;-75.616;2023-05-07T02:26:18;101016.28;;;16.56
74915;BMP280;63475;45.140;-75.616;2023-05-07T02:27:19;101010.53;;;16.45
74915;BMP280;63475;45.140;-75.616;2023-05-07T02:28:20;101022.50;;;16.53
74915;BMP280;63475;45.140;-75.616;2023-05-07T02:29:21;101018.03;;;16.50
74915;BMP280;63475;45.140;-75.616;2023-05-07T02:30:22;101016.94;;;16.48
74915;BMP280;63475;45.140;-75.616;2023-05-07T02:31:23;101011.38;;;16.42
74915;BMP280;63475;45.140;-75.616;2023-05-07T02:32:24;101019.41;;;16.42
74915;BMP280;63475;45.140;-75.616;2023-05-07T02:33:25;101020.63;;;16.41
74915;BMP280;63475;45.140;-75.616;2023-05-07T02:34:26;101013.44;;;16.38
74915;BMP280;63475;45.140;-75.616;2023-05-07T02:35:27;101002.38;;;16.27
74915;BMP280;63475;45.140;-75.616;2023-05-07T02:36:28;101014.75;;;16.33
74915;BMP280;63475;45.140;-75.616;2023-05-07T02:37:29;101016.66;;;16.33
74915;BMP280;63475;45.140;-75.616;2023-05-07T02:38:30;101014.88;;;16.30
74915;BMP280;63475;45.140;-75.616;2023-05-07T02:39:30;101019.47;;;16.29
74915;BMP280;63475;45.140;-75.616;2023-05-07T02:40:31;101013.50;;;16.25
74915;BMP280;63475;45.140;-75.616;2023-05-07T02:41:34;101007.59;;;16.18
74915;BMP280;63475;45.140;-75.616;2023-05-07T02:42:35;101007.50;;;16.21
74915;BMP280;63475;45.140;-75.616;2023-05-07T02:43:36;101014.47;;;16.19
74915;BMP280;63475;45.140;-75.616;2023-05-07T02:44:37;101011.47;;;16.17
74915;BMP280;63475;45.140;-75.616;2023-05-07T02:45:38;100983.06;;;15.97
74915;BMP280;63475;45.140;-75.616;2023-05-07T02:46:39;101009.19;;;16.15
74915;BMP280;63475;45.140;-75.616;2023-05-07T02:47:40;101011.25;;;16.11
74915;BMP280;63475;45.140;-75.616;2023-05-07T02:48:41;101016.59;;;16.11
74915;BMP280;63475;45.140;-75.616;2023-05-07T02:49:42;100957.84;;;15.73
74915;BMP280;63475;45.140;-75.616;2023-05-07T02:50:42;101011.03;;;16.06
74915;BMP280;63475;45.140;-75.616;2023-05-07T02:51:43;100998.75;;;15.95
74915;BMP280;63475;45.140;-75.616;2023-05-07T02:52:44;100991.84;;;15.85
74915;BMP280;63475;45.140;-75.616;2023-05-07T02:53:45;101010.97;;;15.96
74915;BMP280;63475;45.140;-75.616;2023-05-07T02:54:46;100996.44;;;15.85
74915;BMP280;63475;45.140;-75.616;2023-05-07T02:55:47;101017.88;;;15.94
74915;BMP280;63475;45.140;-75.616;2023-05-07T02:56:48;101012.25;;;15.92
74915;BMP280;63475;45.140;-75.616;2023-05-07T02:57:49;101003.28;;;15.86
74915;BMP280;63475;45.140;-75.616;2023-05-07T02:58:50;101004.03;;;15.86
74915;BMP280;63475;45.140;-75.616;2023-05-07T02:59:51;101009.91;;;15.81
74915;BMP280;63475;45.140;-75.616;2023-05-07T03:00:52;101002.41;;;15.76
74915;BMP280;63475;45.140;-75.616;2023-05-07T03:01:55;101012.00;;;15.74
74915;BMP280;63475;45.140;-75.616;2023-05-07T03:02:55;100999.63;;;15.67
74915;BMP280;63475;45.140;-75.616;2023-05-07T03:03:56;101000.38;;;15.68
74915;BMP280;63475;45.140;-75.616;2023-05-07T03:04:57;101000.78;;;15.66
74915;BMP280;63475;45.140;-75.616;2023-05-07T03:06:04;100997.91;;;15.60
74915;BMP280;63475;45.140;-75.616;2023-05-07T03:07:05;100979.53;;;15.50
74915;BMP280;63475;45.140;-75.616;2023-05-07T03:08:07;100969.34;;;15.45
74915;BMP280;63475;45.140;-75.616;2023-05-07T03:09:08;100992.22;;;15.46
74915;BMP280;63475;45.140;-75.616;2023-05-07T03:10:09;100992.41;;;15.39
74915;BMP280;63475;45.140;-75.616;2023-05-07T03:11:10;100990.91;;;15.38
74915;BMP280;63475;45.140;-75.616;2023-05-07T03:12:11;101004.59;;;15.40
74915;BMP280;63475;45.140;-75.616;2023-05-07T03:13:12;100999.69;;;15.38
74915;BMP280;63475;45.140;-75.616;2023-05-07T03:14:13;101000.44;;;15.39
74915;BMP280;63475;45.140;-75.616;2023-05-07T03:15:14;100975.97;;;15.28
74915;BMP280;63475;45.140;-75.616;2023-05-07T03:16:15;100995.09;;;15.39
74915;BMP280;63475;45.140;-75.616;2023-05-07T03:17:16;100990.91;;;15.38
74915;BMP280;63475;45.140;-75.616;2023-05-07T03:18:17;100986.56;;;15.31
74915;BMP280;63475;45.140;-75.616;2023-05-07T03:19:18;100991.13;;;15.31
74915;BMP280;63475;45.140;-75.616;2023-05-07T03:20:19;100996.47;;;15.31
74915;BMP280;63475;45.140;-75.616;2023-05-07T03:21:20;100993.91;;;15.27
74915;BMP280;63475;45.140;-75.616;2023-05-07T03:22:21;100990.91;;;15.25
74915;BMP280;63475;45.140;-75.616;2023-05-07T03:23:22;100999.66;;;15.26
74915;BMP280;63475;45.140;-75.616;2023-05-07T03:24:23;100995.91;;;15.23
74915;BMP280;63475;45.140;-75.616;2023-05-07T03:25:23;100998.69;;;15.19
74915;BMP280;63475;45.140;-75.616;2023-05-07T03:26:25;100984.03;;;15.11
74915;BMP280;63475;45.140;-75.616;2023-05-07T03:27:26;100999.97;;;15.15
74915;BMP280;63475;45.140;-75.616;2023-05-07T03:28:27;101000.88;;;15.08
74915;BMP280;63475;45.140;-75.616;2023-05-07T03:29:28;100993.50;;;15.00
74915;BMP280;63475;45.140;-75.616;2023-05-07T03:30:28;100991.88;;;14.90
74915;BMP280;63475;45.140;-75.616;2023-05-07T03:31:30;100988.88;;;14.88
74915;BMP280;63475;45.140;-75.616;2023-05-07T03:32:31;100995.09;;;14.97
74915;BMP280;63475;45.140;-75.616;2023-05-07T03:33:33;100993.63;;;14.96
74915;BMP280;63475;45.140;-75.616;2023-05-07T03:34:35;100987.59;;;14.80
74915;BMP280;63475;45.140;-75.616;2023-05-07T03:35:36;100997.22;;;14.90
74915;BMP280;63475;45.140;-75.616;2023-05-07T03:36:37;100996.47;;;14.89
74915;BMP280;63475;45.140;-75.616;2023-05-07T03:37:39;101000.16;;;14.79
74915;BMP280;63475;45.140;-75.616;2023-05-07T03:38:40;101000.84;;;14.67
74915;BMP280;63475;45.140;-75.616;2023-05-07T03:39:41;101002.00;;;14.66
74915;BMP280;63475;45.140;-75.616;2023-05-07T03:40:41;100995.84;;;14.69
74915;BMP280;63475;45.140;-75.616;2023-05-07T03:41:42;100998.41;;;14.72
74915;BMP280;63475;45.140;-75.616;2023-05-07T03:42:43;100999.16;;;14.73
74915;BMP280;63475;45.140;-75.616;2023-05-07T03:43:44;101005.53;;;14.75
74915;BMP280;63475;45.140;-75.616;2023-05-07T03:44:45;100979.66;;;14.60
74915;BMP280;63475;45.140;-75.616;2023-05-07T03:45:46;100985.34;;;14.62
74915;BMP280;63475;45.140;-75.616;2023-05-07T03:46:47;101004.16;;;14.71
74915;BMP280;63475;45.140;-75.616;2023-05-07T03:47:48;101004.25;;;14.67
74915;BMP280;63475;45.140;-75.616;2023-05-07T03:48:49;100987.25;;;14.61
74915;BMP280;63475;45.140;-75.616;2023-05-07T03:49:49;100996.66;;;14.66
74915;BMP280;63475;45.140;-75.616;2023-05-07T03:50:53;100972.19;;;14.38
74915;BMP280;63475;45.140;-75.616;2023-05-07T03:51:54;101000.44;;;14.52
74915;BMP280;63475;45.140;-75.616;2023-05-07T03:52:55;100998.19;;;14.51
74915;BMP280;63475;45.140;-75.616;2023-05-07T03:53:55;100968.53;;;14.32
74915;BMP280;63475;45.140;-75.616;2023-05-07T03:54:57;100996.28;;;14.51
74915;BMP280;63475;45.140;-75.616;2023-05-07T03:55:58;100994.88;;;14.47
74915;BMP280;63475;45.140;-75.616;2023-05-07T03:56:59;100994.88;;;14.47
74915;BMP280;63475;45.140;-75.616;2023-05-07T03:58:00;100996.44;;;14.44
74915;BMP280;63475;45.140;-75.616;2023-05-07T03:59:01;100983.69;;;14.35
74915;BMP280;63475;45.140;-75.616;2023-05-07T04:00:02;100979.63;;;14.31
74915;BMP280;63475;45.140;-75.616;2023-05-07T04:01:04;100998.84;;;14.38
74915;BMP280;63475;45.140;-75.616;2023-05-07T04:02:05;100995.00;;;14.39
74915;BMP280;63475;45.140;-75.616;2023-05-07T04:03:07;100976.38;;;14.23
74915;BMP280;63475;45.140;-75.616;2023-05-07T04:04:08;100992.84;;;14.34
74915;BMP280;63475;45.140;-75.616;2023-05-07T04:05:08;100993.03;;;14.27
74915;BMP280;63475;45.140;-75.616;2023-05-07T04:06:10;100997.53;;;14.30
74915;BMP280;63475;45.140;-75.616;2023-05-07T04:07:11;100996.13;;;14.26
74915;BMP280;63475;45.140;-75.616;2023-05-07T04:08:13;100991.97;;;14.25
74915;BMP280;63475;45.140;-75.616;2023-05-07T04:09:13;100998.84;;;14.22
74915;BMP280;63475;45.140;-75.616;2023-05-07T04:10:14;100994.38;;;14.19
74915;BMP280;63475;45.140;-75.616;2023-05-07T04:11:16;100996.03;;;14.13
74915;BMP280;63475;45.140;-75.616;2023-05-07T04:12:17;101007.44;;;14.14
74915;BMP280;63475;45.140;-75.616;2023-05-07T04:13:17;100999.28;;;14.05
74915;BMP280;63475;45.140;-75.616;2023-05-07T04:14:18;100994.22;;;14.10
74915;BMP280;63475;45.140;-75.616;2023-05-07T04:15:19;100996.38;;;14.15
74915;BMP280;63475;45.140;-75.616;2023-05-07T04:16:20;100974.69;;;13.97
74915;BMP280;63475;45.140;-75.616;2023-05-07T04:17:21;100997.53;;;14.14
74915;BMP280;63475;45.140;-75.616;2023-05-07T04:18:22;100997.34;;;14.05
74915;BMP280;63475;45.140;-75.616;2023-05-07T04:19:23;100997.28;;;14.09
74915;BMP280;63475;45.140;-75.616;2023-05-07T04:20:24;100999.13;;;14.12
74915;BMP280;63475;45.140;-75.616;2023-05-07T04:21:25;100964.19;;;13.90
74915;BMP280;63475;45.140;-75.616;2023-05-07T04:22:26;100989.78;;;14.04
74915;BMP280;63475;45.140;-75.616;2023-05-07T04:23:27;101002.66;;;14.05
74915;BMP280;63475;45.140;-75.616;2023-05-07T04:24:31;101002.34;;;14.03
74915;BMP280;63475;45.140;-75.616;2023-05-07T04:25:35;100981.03;;;13.87
74915;BMP280;63475;45.140;-75.616;2023-05-07T04:26:36;100992.50;;;14.00
74915;BMP280;63475;45.140;-75.616;2023-05-07T04:27:37;100995.25;;;13.96
74915;BMP280;63475;45.140;-75.616;2023-05-07T04:28:38;100997.25;;;13.92
74915;BMP280;63475;45.140;-75.616;2023-05-07T04:29:40;100996.25;;;13.86
74915;BMP280;63475;45.140;-75.616;2023-05-07T04:30:42;100989.50;;;13.82
74915;BMP280;63475;45.140;-75.616;2023-05-07T04:31:44;100993.06;;;13.75
74915;BMP280;63475;45.140;-75.616;2023-05-07T04:32:45;100957.06;;;13.51
74915;BMP280;63475;45.140;-75.616;2023-05-07T04:33:46;100978.13;;;13.62
74915;BMP280;63475;45.140;-75.616;2023-05-07T04:34:46;100982.28;;;13.63
74915;BMP280;63475;45.140;-75.616;2023-05-07T04:35:47;100982.19;;;13.66
74915;BMP280;63475;45.140;-75.616;2023-05-07T04:36:49;100982.28;;;13.63
74915;BMP280;63475;45.140;-75.616;2023-05-07T04:37:50;100988.28;;;13.67
74915;BMP280;63475;45.140;-75.616;2023-05-07T04:38:50;100982.19;;;13.66
74915;BMP280;63475;45.140;-75.616;2023-05-07T04:39:51;100983.78;;;13.64
74915;BMP280;63475;45.140;-75.616;2023-05-07T04:40:52;100987.63;;;13.63
74915;BMP280;63475;45.140;-75.616;2023-05-07T04:41:53;100989.94;;;13.61
74915;BMP280;63475;45.140;-75.616;2023-05-07T04:42:54;100934.34;;;13.27
74915;BMP280;63475;45.140;-75.616;2023-05-07T04:43:55;100948.91;;;13.42
74915;BMP280;63475;45.140;-75.616;2023-05-07T04:44:57;100986.25;;;13.54
74915;BMP280;63475;45.140;-75.616;2023-05-07T04:45:58;100990.28;;;13.63
74915;BMP280;63475;45.140;-75.616;2023-05-07T04:46:59;100962.13;;;13.45
74915;BMP280;63475;45.140;-75.616;2023-05-07T04:48:00;100983.84;;;13.60
74915;BMP280;63475;45.140;-75.616;2023-05-07T04:49:00;100983.53;;;13.58
74915;BMP280;63475;45.140;-75.616;2023-05-07T04:50:01;100987.75;;;13.55
74915;BMP280;63475;45.140;-75.616;2023-05-07T04:51:02;100965.38;;;13.33
74915;BMP280;63475;45.140;-75.616;2023-05-07T04:52:04;100971.38;;;13.37
74915;BMP280;63475;45.140;-75.616;2023-05-07T04:53:05;100974.31;;;13.43
74915;BMP280;63475;45.140;-75.616;2023-05-07T04:54:06;100980.47;;;13.40
74915;BMP280;63475;45.140;-75.616;2023-05-07T04:55:07;100978.19;;;13.38
74915;BMP280;63475;45.140;-75.616;2023-05-07T04:56:08;100974.53;;;13.32
74915;BMP280;63475;45.140;-75.616;2023-05-07T04:57:09;100979.03;;;13.35
74915;BMP280;63475;45.140;-75.616;2023-05-07T04:58:11;100935.53;;;13.06
74915;BMP280;63475;45.140;-75.616;2023-05-07T04:59:12;100959.03;;;13.27
74915;BMP280;63475;45.140;-75.616;2023-05-07T05:00:13;100977.19;;;13.32
74915;BMP280;63475;45.140;-75.616;2023-05-07T05:01:20;100970.78;;;13.30
74915;BMP280;63475;45.140;-75.616;2023-05-07T05:02:21;100975.00;;;13.27
74915;BMP280;63475;45.140;-75.616;2023-05-07T05:03:21;100979.16;;;13.28
74915;BMP280;63475;45.140;-75.616;2023-05-07T05:04:22;100974.25;;;13.27
74915;BMP280;63475;45.140;-75.616;2023-05-07T05:05:23;100968.25;;;13.23
74915;BMP280;63475;45.140;-75.616;2023-05-07T05:06:24;100970.09;;;13.26
74915;BMP280;63475;45.140;-75.616;2023-05-07T05:07:27;100975.75;;;13.28
74915;BMP280;63475;45.140;-75.616;2023-05-07T05:08:27;100967.03;;;13.27
74915;BMP280;63475;45.140;-75.616;2023-05-07T05:09:30;100968.25;;;13.23
74915;BMP280;63475;45.140;-75.616;2023-05-07T05:10:31;100963.81;;;13.16
74915;BMP280;63475;45.140;-75.616;2023-05-07T05:11:32;100955.19;;;13.12
74915;BMP280;63475;45.140;-75.616;2023-05-07T05:12:33;100963.47;;;13.14
74915;BMP280;63475;45.140;-75.616;2023-05-07T05:13:33;100950.38;;;13.03
74915;BMP280;63475;45.140;-75.616;2023-05-07T05:14:34;100962.00;;;13.13
74915;BMP280;63475;45.140;-75.616;2023-05-07T05:15:35;100941.44;;;12.94
74915;BMP280;63475;45.140;-75.616;2023-05-07T05:16:36;100957.28;;;13.01
74915;BMP280;63475;45.140;-75.616;2023-05-07T05:17:37;100965.28;;;12.97
74915;BMP280;63475;45.140;-75.616;2023-05-07T05:18:38;100947.16;;;12.92
74915;BMP280;63475;45.140;-75.616;2023-05-07T05:19:39;100963.00;;;12.99
74915;BMP280;63475;45.140;-75.616;2023-05-07T05:20:40;100959.56;;;12.99
74915;BMP280;63475;45.140;-75.616;2023-05-07T05:21:41;100961.13;;;12.96
74915;BMP280;63475;45.140;-75.616;2023-05-07T05:22:42;100957.13;;;12.88
74915;BMP280;63475;45.140;-75.616;2023-05-07T05:23:43;100933.84;;;12.72
74915;BMP280;63475;45.140;-75.616;2023-05-07T05:24:44;100957.59;;;12.83
74915;BMP280;63475;45.140;-75.616;2023-05-07T05:25:45;100959.56;;;12.79
74915;BMP280;63475;45.140;-75.616;2023-05-07T05:26:46;100954.19;;;12.83
74915;BMP280;63475;45.140;-75.616;2023-05-07T05:27:46;100959.81;;;12.85
74915;BMP280;63475;45.140;-75.616;2023-05-07T05:28:47;100957.59;;;12.83
74915;BMP280;63475;45.140;-75.616;2023-05-07T05:29:48;100952.59;;;12.85
74915;BMP280;63475;45.140;-75.616;2023-05-07T05:30:49;100956.38;;;12.88
74915;BMP280;63475;45.140;-75.616;2023-05-07T05:31:50;100954.50;;;12.85
74915;BMP280;63475;45.140;-75.616;2023-05-07T05:32:51;100947.59;;;12.67
74915;BMP280;63475;45.140;-75.616;2023-05-07T05:33:52;100955.00;;;12.79
74915;BMP280;63475;45.140;-75.616;2023-05-07T05:34:53;100960.31;;;12.79
74915;BMP280;63475;45.140;-75.616;2023-05-07T05:35:54;100953.56;;;12.75
74915;BMP280;63475;45.140;-75.616;2023-05-07T05:36:55;100956.63;;;12.73
74915;BMP280;63475;45.140;-75.616;2023-05-07T05:37:56;100952.44;;;12.72